Terminal Aerodrome Forecast
Issued by NWS Charleston, WV

Current Version | Previous Version | Graphics & Text | Print | Product List | Glossary On
Versions: 1 2 3 4 5 6 7 8 9 10 11 12 13 14 15 16 17 18 19 20 21 22 23
000
FTUS41 KRLX 032120 AAA
TAFCRW
TAF AMD
KCRW 032120Z 0321/0418 24009G18KT P6SM SCT050
     FM040100 21008KT P6SM VCTS SCT050CB BKN100
     FM040400 21005KT P6SM VCTS BKN030CB
     FM040800 22004KT 6SM BR BKN020
     FM041300 26004KT P6SM SCT015=

USA.gov is the U.S. government's official web portal to all federal, state and local government web resources and services.